Terminal Aerodrome Forecast
Issued by NWS Duluth, MN

Home | Current Version | Previous Version | Text Only | Print | Product List | Glossary On
Versions: 1 2 3 4 5 6 7 8 9 10 11 12 13 14 15 16 17 18 19 20
161
FTUS43 KDLH 180538
TAFDLH
TAF
KDLH 180538Z 1806/1906 27012KT P6SM SKC WS020/30037KT
     FM180800 28012KT P6SM FEW150 WS020/31040KT
     FM181600 28012KT P6SM SCT200
     FM190000 27008KT P6SM SCT100 BKN150
     FM190500 31005KT P6SM BKN100=

USA.gov is the U.S. government's official web portal to all federal, state and local government web resources and services.